map of SJW home
SJW - Airport
Location
City:  Shijiazhuang, Hubei, China
Name:Shijiazhuang Zhengding International Airport
Old (Alt.):Daguocun International Airport
ICAO:ZBSJ
IATA:SJW

Details
Type:Airport (Aerodrome, Airfield)
Use:Public/Civil, International (customs port of entry)
Latitude:3817'N (38.282)
Longitude:11442'E (114.698)
Elevation:233 ft (71 m)
Variation:6.05W (WMM2015 magnetic declination)
-0.06 annual change
Runways:1
Longest:11155 × 148 ft (3400 × 45 m), paved

Time
Time Zone:UTC+8
Local Time:

Weather
METAR:ZBSJ 150300Z 03002MPS 340V060 1300 R33/1600U BR OVC040 10/07 Q1026 BECMG TL0430 1500

Related Locations
Nearby:
Farthest:SAZU: 12405 mi / 19965 km
Pulches [Pulches Airport], L, AR

Find:

   beyond  
but within

Other Information
Maps:
NOTAMs:
Links:
Sources:

  
  • flag of China
  

Sectional Chart

Flight Planning
at skyvector.com

Satellite Image

Google Maps Satellite view

 

Copyright © 2004-2018 Karl L. Swartz. All rights reserved.
The Great Circle Mapper name and logo are trademarks of the Great Circle Mapper.
All other trademarks mentioned herein belong to their respective owners.
Please see credits for attibutions and further copyright information.

  Follow gcmap on Facebook Follow gcmap on Twitter Follow gcmap on Google+ GCmap on LinkedIn

hCard Microformat

Geo Microformat